Latest Weather Observations for Sheoaks

IDV60801

Issued at 1:32 pm EDT Thursday 23 February 2017 (issued every 30 minutes, with the page automatically refreshed every 10 minutes)

About weather observations | Map of weather stations | Latest weather observations for VIC | Other Formats
Station Details ID: 087168 Name: SHEOAKS Lat: -37.91 Lon: 144.13 Height: 236.7 m
Data from the previous 72 hours. | See also: Recent months at Sheoaks
Date/Time
EDT
Temp
°C
App
Temp
°C
Dew
Point
°C
Rel
Hum
%
Delta-T
°C
Wind Press
QNH
hPa
Press
MSL
hPa
Rain since
9am
mm
Dir  Spd
km/h
Gust
km/h
Spd
kts
Gust
kts
23/01:30pm 20.8 18.3 10.9 53 5.5 W 15 26 8 14 1018.9 1018.2 0.0
23/01:00pm 20.5 18.5 11.4 56 5.1 WSW 13 19 7 10 1018.9 1018.2 0.0
23/12:30pm 21.1 19.0 11.2 53 5.5 W 13 22 7 12 1018.8 1018.1 0.0
23/12:00pm 19.6 16.4 11.4 59 4.5 W 19 28 10 15 1018.9 1018.2 0.0
23/11:30am 18.8 15.5 11.6 63 4.0 W 20 41 11 22 1019.0 1018.3 0.0
23/11:00am 18.7 15.9 11.5 63 4.0 W 17 28 9 15 1018.8 1018.1 0.0
23/10:30am 18.7 15.9 11.5 63 4.0 WSW 17 33 9 18 1018.3 1017.6 0.0
23/10:00am 18.2 15.1 11.7 66 3.6 W 19 33 10 18 1017.9 1017.2 0.0
23/09:30am 18.0 14.8 11.8 67 3.4 WNW 20 30 11 16 1017.5 1016.8 0.0
23/09:00am 17.1 15.1 11.6 70 3.0 WNW 13 24 7 13 1017.2 1016.5 0.0
23/08:30am 16.4 14.1 11.6 73 2.6 WNW 15 22 8 12 1016.8 1016.1 0.0
23/08:00am 16.1 13.3 11.5 74 2.5 W 17 35 9 19 1016.6 1015.9 0.0
23/07:30am 14.9 13.1 10.7 76 2.2 W 11 22 6 12 1016.0 1015.2 0.0
23/07:00am 13.5 12.3 9.4 76 2.1 NNW 6 7 3 4 1015.3 1014.6 0.0
23/06:30am 14.0 11.8 9.2 73 2.5 NW 11 15 6 8 1014.6 1013.9 0.0
23/06:00am 13.8 11.8 8.8 72 2.6 NNW 9 11 5 6 1014.2 1013.5 0.0
23/05:30am 14.3 12.0 8.9 70 2.8 NW 11 13 6 7 1013.8 1013.1 0.0
23/05:00am 14.9 13.0 9.1 68 3.0 NW 9 17 5 9 1013.6 1012.9 0.0
23/04:30am 14.4 12.5 9.2 71 2.7 NW 9 13 5 7 1013.3 1012.6 0.0
23/04:00am 14.7 13.2 9.3 70 2.8 NW 7 11 4 6 1013.2 1012.5 0.0
23/03:30am 15.4 14.0 9.5 68 3.1 NW 7 11 4 6 1013.0 1012.3 0.0
23/03:00am 15.8 13.8 10.1 69 3.0 NNW 11 15 6 8 1012.9 1012.2 0.0
23/02:30am 15.9 14.4 10.4 70 2.9 NW 9 13 5 7 1012.9 1012.2 0.0
23/02:00am 15.7 14.0 11.1 74 2.5 NW 11 15 6 8 1012.9 1012.2 0.0
23/01:30am 15.7 14.4 11.1 74 2.5 NW 9 13 5 7 1012.9 1012.2 0.0
23/01:00am 15.6 14.3 11.2 75 2.4 NW 9 15 5 8 1012.6 1011.8 0.0
23/12:30am 15.9 14.2 11.3 74 2.5 NW 11 17 6 9 1012.4 1011.6 0.0
23/12:00am 16.3 15.4 11.2 72 2.8 NNW 7 11 4 6 1012.1 1011.3 0.0
 
Date/Time
EDT
Temp
°C
App
Temp
°C
Dew
Point
°C
Rel
Hum
%
Delta-T
°C
Wind Press
QNH
hPa
Press
MSL
hPa
Rain since
9am
mm
Dir  Spd
km/h
Gust
km/h
Spd
kts
Gust
kts
22/11:30pm 16.8 15.9 11.3 70 3.0 NW 7 13 4 7 1012.2 1011.4 0.0
22/11:00pm 17.3 16.0 11.3 68 3.3 NW 9 13 5 7 1012.1 1011.3 0.0
22/10:30pm 17.5 15.9 11.5 68 3.3 WNW 11 15 6 8 1011.6 1010.8 0.0
22/10:00pm 17.9 16.2 11.2 65 3.7 W 11 20 6 11 1011.4 1010.7 0.0
22/09:30pm 18.8 15.0 11.1 61 4.2 WSW 22 43 12 23 1010.6 1009.9 0.0
22/09:13pm 20.0 15.3 10.7 55 5.1 WSW 26 43 14 23 1009.8 1009.1 0.0
22/09:03pm 25.1 20.9 5.8 29 10.0 NNW 17 43 9 23 1009.1 1008.4 0.0
22/09:00pm 28.0 23.4 1.5 18 13.0 N 15 19 8 10 1008.3 1007.5 0.0
22/08:30pm 29.4 24.3 1.0 16 13.9 N 17 24 9 13 1008.1 1007.3 0.0
22/08:00pm 30.0 25.3 0.6 15 14.4 N 15 26 8 14 1008.1 1007.3 0.0
22/07:30pm 31.6 26.4 -0.1 13 15.4 N 17 26 9 14 1008.0 1007.2 0.0
22/07:00pm 32.2 24.8 -0.8 12 16.0 N 28 43 15 23 1007.9 1007.1 0.0
22/06:30pm 32.4 25.4 -0.6 12 16.0 N 26 46 14 25 1008.0 1007.2 0.0
22/06:00pm 32.9 25.9 -0.2 12 16.3 N 26 43 14 23 1008.3 1007.5 0.0
22/05:31pm 32.5 25.1 -0.5 12 16.1 N 28 46 15 25 1008.3 1007.5 0.0
22/05:30pm 32.7 25.9 0.7 13 15.9 NNW 26 39 14 21 1008.4 1007.6 0.0
22/05:00pm 32.5 24.4 -0.5 12 16.1 NNW 32 61 17 33 1008.9 1008.1 0.0
22/04:31pm 32.1 23.9 0.2 13 15.7 NNW 33 52 18 28 1009.2 1008.5 0.0
22/04:30pm 32.4 23.8 0.5 13 15.8 NNW 35 52 19 28 1009.2 1008.5 0.0
22/04:00pm 32.3 24.3 0.4 13 15.8 NNW 32 52 17 28 1009.3 1008.6 0.0
22/03:40pm 31.7 24.2 1.0 14 15.2 NNW 30 48 16 26 1009.8 1009.1 0.0
22/03:30pm 31.6 23.5 0.9 14 15.2 N 33 48 18 26 1009.8 1009.1 0.0
22/03:01pm 31.2 23.7 1.5 15 14.8 NNW 30 50 16 27 1010.2 1009.5 0.0
22/03:00pm 31.5 24.6 2.7 16 14.7 NNW 28 43 15 23 1010.3 1009.6 0.0
22/02:30pm 31.4 23.7 3.4 17 14.4 N 33 52 18 28 1010.0 1009.3 0.0
22/02:13pm 30.7 22.9 2.0 16 14.4 N 32 50 17 27 1010.4 1009.7 0.0
22/02:00pm 30.5 23.2 2.7 17 14.1 N 30 48 16 26 1010.7 1010.0 0.0
22/01:48pm 29.5 22.6 2.7 18 13.5 N 28 50 15 27 1011.3 1010.6 0.0
22/01:30pm 29.6 23.5 2.8 18 13.5 NNW 24 37 13 20 1012.2 1011.4 0.0
22/01:00pm 29.2 23.4 2.5 18 13.4 NNW 22 33 12 18 1012.7 1012.0 0.0
22/12:30pm 28.2 20.9 2.4 19 12.8 N 30 43 16 23 1013.0 1012.3 0.0
22/12:00pm 27.7 21.6 2.7 20 12.5 N 24 35 13 19 1013.4 1012.7 0.0
22/11:30am 27.0 21.0 3.5 22 11.8 N 24 39 13 21 1014.0 1013.3 0.0
22/11:00am 26.5 20.6 3.7 23 11.5 N 24 35 13 19 1014.6 1013.9 0.0
22/10:30am 24.8 20.7 4.5 27 10.3 N 15 24 8 13 1015.0 1014.3 0.0
22/10:00am 23.8 19.8 4.7 29 9.6 N 15 24 8 13 1015.2 1014.5 0.0
22/09:30am 21.6 17.8 5.9 36 8.0 N 15 22 8 12 1015.2 1014.5 0.0
22/09:00am 18.4 15.5 6.6 46 5.9 N 11 15 6 8 1015.4 1014.7 0.0
22/08:30am 15.5 13.6 7.5 59 4.0 N 7 11 4 6 1015.3 1014.6 0.0
22/08:00am 14.8 11.9 6.6 58 4.0 N 11 15 6 8 1015.1 1014.4 0.0
22/07:59am 14.6 11.8 6.9 60 3.8 N 11 15 6 8 1015.1 1014.4 0.0
22/07:30am 9.5 7.7 5.3 75 1.9 N 4 6 2 3 1014.9 1014.2 0.0
22/07:00am 7.8 4.9 4.9 82 1.3 N 9 11 5 6 1014.9 1014.2 0.0
22/06:30am 8.5 6.1 5.3 80 1.5 NNW 7 9 4 5 1015.0 1014.3 0.0
22/06:00am 9.4 7.0 5.4 76 1.8 NNW 7 9 4 5 1015.0 1014.3 0.0
22/05:30am 9.2 6.5 5.6 78 1.7 N 9 11 5 6 1014.8 1014.1 0.0
22/05:00am 9.9 7.2 5.7 75 1.9 N 9 11 5 6 1015.0 1014.3 0.0
22/04:30am 10.5 7.6 6.5 76 1.9 N 11 13 6 7 1015.3 1014.6 0.0
22/04:00am 11.0 8.2 6.9 76 2.0 N 11 13 6 7 1015.6 1014.9 0.0
22/03:30am 10.9 8.4 8.0 82 1.4 N 11 15 6 8 1015.7 1015.0 0.0
22/03:00am 10.0 8.0 8.6 91 0.7 N 9 13 5 7 1016.0 1015.2 0.0
22/02:30am 10.3 8.8 9.1 92 0.6 N 7 9 4 5 1016.5 1015.8 0.0
22/02:00am 9.9 7.9 8.5 91 0.7 NNW 9 11 5 6 1016.9 1016.2 0.0
22/01:30am 10.1 8.6 8.5 90 0.8 NNW 6 6 3 3 1017.5 1016.8 0.0
22/01:00am 10.4 8.7 8.5 88 0.9 N 7 9 4 5 1017.8 1017.1 0.0
22/12:30am 10.6 8.9 8.5 87 1.0 NNW 7 9 4 5 1018.3 1017.6 0.0
22/12:00am 10.8 9.4 8.7 87 1.0 N 6 7 3 4 1018.7 1018.0 0.0
 
Date/Time
EDT
Temp
°C
App
Temp
°C
Dew
Point
°C
Rel
Hum
%
Delta-T
°C
Wind Press
QNH
hPa
Press
MSL
hPa
Rain since
9am
mm
Dir  Spd
km/h
Gust
km/h
Spd
kts
Gust
kts
21/11:30pm 11.6 10.7 9.2 85 1.2 NNE 4 6 2 3 1018.9 1018.2 0.0
21/11:00pm 13.2 12.6 10.4 83 1.5 NNE 4 4 2 2 1019.0 1018.3 0.0
21/10:30pm 13.3 12.4 10.7 84 1.4 ENE 6 6 3 3 1019.2 1018.5 0.0
21/10:00pm 13.3 12.2 10.1 81 1.7 ENE 6 7 3 4 1019.2 1018.5 0.0
21/09:30pm 14.6 13.2 10.8 78 2.0 ESE 9 13 5 7 1019.0 1018.3 0.0
21/09:00pm 15.5 13.3 10.9 74 2.5 SE 13 17 7 9 1018.7 1018.0 0.0
21/08:30pm 16.6 13.8 7.0 53 4.8 ESE 11 17 6 9 1018.4 1017.7 0.0
21/08:00pm 18.0 14.4 6.8 48 5.6 ESE 15 20 8 11 1018.1 1017.4 0.0
21/07:30pm 19.7 16.6 7.1 44 6.5 ESE 13 19 7 10 1017.9 1017.2 0.0
21/07:00pm 20.7 17.2 7.0 41 7.0 ESE 15 22 8 12 1017.7 1017.0 0.0
21/06:30pm 21.6 17.6 6.7 38 7.7 ESE 17 22 9 12 1017.8 1017.1 0.0
21/06:00pm 22.1 18.0 6.3 36 8.1 ESE 17 20 9 11 1017.7 1017.0 0.0
21/05:30pm 22.3 18.4 6.9 37 8.0 ESE 17 24 9 13 1017.9 1017.2 0.0
21/05:00pm 22.3 18.1 7.3 38 7.8 SE 19 32 10 17 1018.1 1017.4 0.0
21/04:30pm 22.9 18.7 7.4 37 8.2 SE 19 28 10 15 1018.2 1017.5 0.0
21/04:00pm 23.6 20.3 4.5 29 9.5 SE 11 22 6 12 1018.6 1017.9 0.0
21/03:30pm 22.6 20.1 4.6 31 9.0 NNE 7 13 4 7 1018.9 1018.2 0.0
21/03:00pm 21.9 19.1 5.3 34 8.3 SE 9 19 5 10 1019.3 1018.6 0.0
21/02:30pm 22.0 18.9 5.4 34 8.4 ESE 11 24 6 13 1019.7 1019.0 0.0
21/02:00pm 21.6 19.4 5.5 35 8.1 NNE 6 13 3 7 1020.0 1019.4 0.0
21/01:30pm 20.4 18.2 5.2 37 7.6 ESE 6 11 3 6 1020.3 1019.7 0.0
21/01:00pm 20.4 17.9 6.4 40 7.1 E 9 17 5 9 1020.3 1019.7 0.0
21/12:30pm 19.2 17.2 6.3 43 6.5 ENE 6 11 3 6 1021.2 1020.5 0.0
21/12:00pm 17.9 16.0 6.7 48 5.6 WNW 6 13 3 7 1021.7 1021.0 0.0
21/11:30am 18.2 16.4 7.9 51 5.3 ENE 7 11 4 6 1021.7 1021.0 0.0
21/11:00am 17.4 16.3 8.3 55 4.7 ENE 4 9 2 5 1021.5 1020.8 0.0
21/10:30am 15.3 13.6 7.6 60 3.9 W 6 9 3 5 1022.0 1021.3 0.0
21/10:00am 14.9 13.4 8.4 65 3.3 SSW 6 9 3 5 1022.0 1021.3 0.0
21/09:30am 13.9 12.8 9.9 77 2.1 SW 6 11 3 6 1022.0 1021.3 0.0
21/09:00am 11.5 10.4 9.9 90 0.8 NNW 6 7 3 4 1021.7 1021.0 0.2
21/08:30am 8.7 7.1 7.8 94 0.4 N 6 7 3 4 1021.2 1020.5 0.2
21/08:00am 6.8 4.5 5.9 94 0.4 N 7 7 4 4 1021.1 1020.4 0.2
21/07:30am 5.8 2.9 4.9 94 0.4 N 9 11 5 6 1020.7 1020.0 0.2
21/07:00am 5.6 2.7 4.6 93 0.4 N 9 9 5 5 1020.2 1019.6 0.2
21/06:30am 5.9 3.0 4.9 93 0.4 NNW 9 11 5 6 1019.8 1019.1 0.2
21/06:00am 6.1 3.3 5.1 93 0.4 N 9 11 5 6 1019.4 1018.7 0.2
21/05:30am 6.2 3.4 5.2 93 0.4 N 9 9 5 5 1019.1 1018.4 0.2
21/05:00am 6.7 4.4 5.7 93 0.5 N 7 7 4 4 1019.1 1018.4 0.2
21/04:30am 6.6 4.4 5.4 92 0.5 N 6 7 3 4 1019.1 1018.4 0.2
21/04:00am 6.6 4.4 5.4 92 0.5 NNW 6 9 3 5 1019.2 1018.5 0.2
21/03:30am 6.7 4.4 5.5 92 0.5 NNW 7 11 4 6 1019.1 1018.4 0.2
21/03:00am 6.7 4.5 5.5 92 0.5 NNW 6 9 3 5 1019.1 1018.4 0.2
21/02:30am 6.9 4.6 5.7 92 0.5 NNW 7 9 4 5 1019.0 1018.3 0.2
21/02:00am 7.1 4.8 5.7 91 0.6 NNW 7 9 4 5 1019.0 1018.3 0.2
21/01:30am 7.4 5.3 5.9 90 0.7 NNW 6 7 3 4 1019.4 1018.7 0.2
21/01:00am 7.6 5.5 5.9 89 0.8 NNW 6 7 3 4 1019.4 1018.7 0.2
21/12:30am 8.1 6.1 6.1 87 0.9 NW 6 7 3 4 1019.5 1018.8 0.2
21/12:00am 9.1 7.0 6.5 84 1.2 WNW 7 9 4 5 1019.4 1018.7 0.2
 
Date/Time
EDT
Temp
°C
App
Temp
°C
Dew
Point
°C
Rel
Hum
%
Delta-T
°C
Wind Press
QNH
hPa
Press
MSL
hPa
Rain since
9am
mm
Dir  Spd
km/h
Gust
km/h
Spd
kts
Gust
kts
20/11:30pm 10.1 7.7 7.2 82 1.4 W 9 11 5 6 1019.2 1018.5 0.2
20/11:00pm 10.3 8.2 6.6 78 1.8 W 7 11 4 6 1019.2 1018.5 0.2
20/10:30pm 10.9 8.5 6.8 76 2.0 W 9 13 5 7 1019.1 1018.4 0.2
20/10:00pm 11.3 8.8 6.4 72 2.3 W 9 15 5 8 1018.9 1018.2 0.2
20/09:30pm 12.2 9.6 6.3 67 2.8 WSW 9 15 5 8 1018.5 1017.8 0.2
20/09:00pm 13.0 10.4 6.1 63 3.3 WSW 9 15 5 8 1018.0 1017.3 0.2
20/08:30pm 13.8 10.7 5.7 58 3.9 WSW 11 22 6 12 1017.5 1016.8 0.2
20/08:00pm 14.8 11.3 5.6 54 4.4 WSW 13 20 7 11 1017.1 1016.4 0.2
20/07:30pm 15.5 11.5 5.1 50 5.0 WSW 15 30 8 16 1016.6 1015.9 0.2
20/07:00pm 15.8 11.4 4.5 47 5.3 WSW 17 28 9 15 1016.3 1015.5 0.2
20/06:30pm 16.4 11.9 4.1 44 5.8 WSW 17 30 9 16 1015.8 1015.1 0.2
20/06:00pm 16.8 12.0 4.8 45 5.8 SW 19 35 10 19 1015.4 1014.7 0.2
20/05:30pm 17.8 12.9 5.1 43 6.2 WSW 20 33 11 18 1015.0 1014.3 0.2
20/05:00pm 19.5 14.5 4.4 37 7.3 WSW 20 35 11 19 1014.6 1013.9 0.2
20/04:30pm 19.1 13.3 4.5 38 7.1 SW 24 39 13 21 1014.4 1013.7 0.2
20/04:00pm 18.5 13.1 4.7 40 6.7 WSW 22 43 12 23 1014.3 1013.6 0.2
20/03:30pm 18.5 13.2 5.0 41 6.6 SW 22 33 12 18 1014.0 1013.3 0.2
20/03:00pm 19.6 14.8 4.9 38 7.2 WSW 19 33 10 18 1014.0 1013.3 0.2
20/02:30pm 18.3 13.7 5.5 43 6.3 WSW 19 32 10 17 1013.9 1013.2 0.2
20/02:00pm 18.4 13.5 4.9 41 6.6 WSW 20 32 11 17 1014.0 1013.3 0.2

Other Formats:

Comma delimited format used in spreadsheet applications
http://www.bom.gov.au/fwo/IDV60801/IDV60801.94863.axf

JavaScript Object Notation format (JSON) in row-major order
http://www.bom.gov.au/fwo/IDV60801/IDV60801.94863.json